Norse Mersey — IBEN — position and weather

sailwx.info

Track history (hours):
 
Tides and Currents Weather Stations Pressure Air Temp Water Temp Dewpoint Dewpoint Depression Visibility Wind Speed Wind Dir Waves Ship Positions

Norse Mersey

Operator: Norse Merchant Ferries

Last reported at 2017-Dec-10 04:46 UTC. Time now 2017-Dec-14 15:06 UTC.
Position N 39°29' E 015°06'.

Length 175 m; draft 5.3 m.

Type: Passenger vessel. MMSI: 247026000.

Date/timePositionNaut miles runAvg speedWind from/ knotsBaromVisibWave heightAir tempDewpointWater temp
2017-Dec-10 04:46N 39°29' E 015°06'413.0
2017-Dec-10 04:28N 39°25' E 015°08'4612.9
2017-Dec-10 00:53N 38°42' E 015°30'512.8
2017-Dec-10 00:29N 38°37' E 015°33'612.3
2017-Dec-10 00:00N 38°32' E 015°35'611.7
2017-Dec-09 23:30N 38°26' E 015°38'611.7
2017-Dec-09 23:00N 38°21' E 015°40'611.0
2017-Dec-09 22:25N 38°15' E 015°38'615.4
2017-Dec-09 22:00N 38°08' E 015°37'814.5
2017-Dec-09 21:28N 38°01' E 015°34'1015.5
2017-Dec-09 20:51N 37°52' E 015°28'2 0.1
2017-Dec-08 10:13N 37°54' E 015°26'1116.2
2017-Dec-08 09:33N 38°04' E 015°32'116.6
2017-Dec-08 09:29N 38°05' E 015°33'715.5
2017-Dec-08 09:00N 38°12' E 015°36'612.3
2017-Dec-08 08:30N 38°17' E 015°40'816.1
2017-Dec-08 08:00N 38°24' E 015°37'816.2
2017-Dec-08 07:30N 38°32' E 015°34'5615.8
2017-Dec-08 03:58N 39°25' E 015°09'5 0.2
2017-Dec-07 06:58N 39°29' E 015°08'3415.8
2017-Dec-07 04:47N 38°57' E 015°24'515.8
2017-Dec-07 04:27N 38°52' E 015°26'1615.7
2017-Dec-07 03:25N 38°37' E 015°33'715.6
2017-Dec-07 02:58N 38°31' E 015°37'715.4
2017-Dec-07 02:30N 38°24' E 015°40'913.6
2017-Dec-07 01:52N 38°15' E 015°40'513.0
2017-Dec-07 01:30N 38°11' E 015°37'715.1
2017-Dec-07 01:00N 38°04' E 015°36'  
2017-Dec-04 02:54N 35°54' E 014°32'512.3
2017-Dec-04 02:30N 35°58' E 014°35'124 8.1
2017-Dec-03 11:14N 37°55' E 015°26'1015.4
2017-Dec-03 10:33N 38°05' E 015°32'415.7
2017-Dec-03 10:17N 38°08' E 015°34'516.0
2017-Dec-03 10:00N 38°13' E 015°36'714.1
2017-Dec-03 09:30N 38°19' E 015°39'915.4
2017-Dec-03 08:55N 38°28' E 015°35'67 2.9
2017-Dec-02 09:44N 39°31' E 015°07'5815.6
2017-Dec-02 06:01N 38°37' E 015°34'215.6
2017-Dec-02 05:52N 38°35' E 015°35'615.5
2017-Dec-02 05:29N 38°29' E 015°37'715.8
2017-Dec-02 05:00N 38°22' E 015°40'712.6
2017-Dec-02 04:27N 38°15' E 015°40'715.0
2017-Dec-02 04:00N 38°09' E 015°37'814.8
2017-Dec-02 03:29N 38°01' E 015°35'2115.0
2017-Dec-02 02:05N 37°43' E 015°22'12 1.0
2017-Dec-01 14:24N 37°54' E 015°26'1115.6
2017-Dec-01 13:44N 38°04' E 015°32'416.1
2017-Dec-01 13:27N 38°08' E 015°34'715.7
2017-Dec-01 13:01N 38°15' E 015°37'612.3
2017-Dec-01 12:30N 38°20' E 015°39'915.7
2017-Dec-01 11:55N 38°29' E 015°35'5915.9
2017-Dec-01 08:11N 39°25' E 015°08'8 0.4
2017-Nov-30 11:21N 39°25' E 014°58'4515.3
2017-Nov-30 08:26N 38°42' E 015°12'716.0
2017-Nov-30 08:00N 38°37' E 015°19'815.8
2017-Nov-30 07:28N 38°31' E 015°26'715.6
2017-Nov-30 07:00N 38°26' E 015°33'815.8
2017-Nov-30 06:30N 38°20' E 015°40'610.0
2017-Nov-30 05:57N 38°15' E 015°39'714.4
2017-Nov-30 05:29N 38°08' E 015°36'  
Track history (hours):
 
Tides and Currents Weather Stations Pressure Air Temp Water Temp Dewpoint Dewpoint Depression Visibility Wind Speed Wind Dir Waves Ship Positions

Norse Mersey

Operator: Norse Merchant Ferries

Last reported at 2017-Dec-10 04:46 UTC. Time now 2017-Dec-14 15:06 UTC.
Position N 39°29' E 015°06'.

Length 175 m; draft 5.3 m.

Type: Passenger vessel. MMSI: 247026000.

Date/timePositionNaut miles runAvg speedWind from/ knotsBaromVisibWave heightAir tempDewpointWater temp
2017-Dec-10 04:46N 39°29' E 015°06'413.0
2017-Dec-10 04:28N 39°25' E 015°08'4612.9
2017-Dec-10 00:53N 38°42' E 015°30'512.8
2017-Dec-10 00:29N 38°37' E 015°33'612.3
2017-Dec-10 00:00N 38°32' E 015°35'611.7
2017-Dec-09 23:30N 38°26' E 015°38'611.7
2017-Dec-09 23:00N 38°21' E 015°40'611.0
2017-Dec-09 22:25N 38°15' E 015°38'615.4
2017-Dec-09 22:00N 38°08' E 015°37'814.5
2017-Dec-09 21:28N 38°01' E 015°34'1015.5
2017-Dec-09 20:51N 37°52' E 015°28'2 0.1
2017-Dec-08 10:13N 37°54' E 015°26'1116.2
2017-Dec-08 09:33N 38°04' E 015°32'116.6
2017-Dec-08 09:29N 38°05' E 015°33'715.5
2017-Dec-08 09:00N 38°12' E 015°36'612.3
2017-Dec-08 08:30N 38°17' E 015°40'816.1
2017-Dec-08 08:00N 38°24' E 015°37'816.2
2017-Dec-08 07:30N 38°32' E 015°34'5615.8
2017-Dec-08 03:58N 39°25' E 015°09'5 0.2
2017-Dec-07 06:58N 39°29' E 015°08'3415.8
2017-Dec-07 04:47N 38°57' E 015°24'515.8
2017-Dec-07 04:27N 38°52' E 015°26'1615.7
2017-Dec-07 03:25N 38°37' E 015°33'715.6
2017-Dec-07 02:58N 38°31' E 015°37'715.4
2017-Dec-07 02:30N 38°24' E 015°40'913.6
2017-Dec-07 01:52N 38°15' E 015°40'513.0
2017-Dec-07 01:30N 38°11' E 015°37'715.1
2017-Dec-07 01:00N 38°04' E 015°36'  
2017-Dec-04 02:54N 35°54' E 014°32'512.3
2017-Dec-04 02:30N 35°58' E 014°35'124 8.1
2017-Dec-03 11:14N 37°55' E 015°26'1015.4
2017-Dec-03 10:33N 38°05' E 015°32'415.7
2017-Dec-03 10:17N 38°08' E 015°34'516.0
2017-Dec-03 10:00N 38°13' E 015°36'714.1
2017-Dec-03 09:30N 38°19' E 015°39'915.4
2017-Dec-03 08:55N 38°28' E 015°35'67 2.9
2017-Dec-02 09:44N 39°31' E 015°07'5815.6
2017-Dec-02 06:01N 38°37' E 015°34'215.6
2017-Dec-02 05:52N 38°35' E 015°35'615.5
2017-Dec-02 05:29N 38°29' E 015°37'715.8
2017-Dec-02 05:00N 38°22' E 015°40'712.6
2017-Dec-02 04:27N 38°15' E 015°40'715.0
2017-Dec-02 04:00N 38°09' E 015°37'814.8
2017-Dec-02 03:29N 38°01' E 015°35'2115.0
2017-Dec-02 02:05N 37°43' E 015°22'12 1.0
2017-Dec-01 14:24N 37°54' E 015°26'1115.6
2017-Dec-01 13:44N 38°04' E 015°32'416.1
2017-Dec-01 13:27N 38°08' E 015°34'715.7
2017-Dec-01 13:01N 38°15' E 015°37'612.3
2017-Dec-01 12:30N 38°20' E 015°39'915.7
2017-Dec-01 11:55N 38°29' E 015°35'5915.9
2017-Dec-01 08:11N 39°25' E 015°08'8 0.4
2017-Nov-30 11:21N 39°25' E 014°58'4515.3
2017-Nov-30 08:26N 38°42' E 015°12'716.0
2017-Nov-30 08:00N 38°37' E 015°19'815.8
2017-Nov-30 07:28N 38°31' E 015°26'715.6
2017-Nov-30 07:00N 38°26' E 015°33'815.8
2017-Nov-30 06:30N 38°20' E 015°40'610.0
2017-Nov-30 05:57N 38°15' E 015°39'714.4
2017-Nov-30 05:29N 38°08' E 015°36'  

Dump ship's entire track history